createdAt,value
2023-08-18T00:01:15.774Z,25.75
2023-08-18T00:03:42.361Z,25.55
2023-08-18T00:06:08.956Z,26.45
2023-08-18T00:08:36.770Z,24.70
2023-08-18T00:11:03.310Z,25.70
2023-08-18T00:13:29.740Z,22.15
2023-08-18T00:15:56.377Z,27.88
2023-08-18T00:18:22.871Z,25.35
2023-08-18T00:20:50.481Z,25.10
2023-08-18T00:23:17.025Z,27.52
2023-08-18T00:25:44.844Z,28.75
2023-08-18T00:28:11.859Z,26.67
2023-08-18T00:30:38.288Z,27.48
2023-08-18T00:33:05.056Z,27.00
2023-08-18T00:35:31.616Z,28.08
2023-08-18T00:37:58.051Z,26.70
2023-08-18T00:40:24.657Z,25.23
2023-08-18T00:42:52.471Z,26.55
2023-08-18T00:45:19.002Z,26.48
2023-08-18T00:47:45.568Z,29.02
2023-08-18T00:50:12.572Z,28.65
2023-08-18T00:52:39.480Z,27.75
2023-08-18T00:55:06.801Z,28.27
2023-08-18T00:57:33.992Z,27.13
2023-08-18T01:00:05.139Z,27.55
2023-08-18T01:02:31.582Z,25.98
2023-08-18T01:05:00.684Z,26.27
2023-08-18T01:07:27.398Z,26.13
2023-08-18T01:09:54.402Z,25.60
2023-08-18T01:12:24.847Z,24.75
2023-08-18T01:14:55.468Z,25.75
2023-08-18T01:17:26.724Z,26.83
2023-08-18T01:19:53.622Z,28.63
2023-08-18T01:22:20.173Z,29.40
2023-08-18T01:24:47.992Z,27.85
2023-08-18T01:27:14.429Z,28.70
2023-08-18T01:29:41.020Z,30.85
2023-08-18T01:32:08.425Z,29.10
2023-08-18T01:34:36.322Z,28.33
2023-08-18T01:37:03.269Z,29.38
2023-08-18T01:39:31.051Z,28.48
2023-08-18T01:41:59.323Z,29.27
2023-08-18T01:44:25.770Z,28.10
2023-08-18T01:46:52.218Z,30.08
2023-08-18T01:49:18.687Z,30.05
2023-08-18T01:51:45.128Z,29.42
2023-08-18T01:54:11.600Z,28.05
2023-08-18T01:56:38.063Z,28.92
2023-08-18T01:59:05.841Z,28.98
2023-08-18T02:01:32.330Z,30.58
2023-08-18T02:03:58.930Z,28.00
2023-08-18T02:06:25.457Z,29.88
2023-08-18T02:08:51.862Z,30.90
2023-08-18T02:11:18.300Z,32.20
2023-08-18T02:13:44.768Z,29.48
2023-08-18T02:16:12.615Z,31.77
2023-08-18T02:18:39.142Z,31.05
2023-08-18T02:21:05.592Z,28.75
2023-08-18T02:23:31.992Z,29.80
2023-08-18T02:26:01.629Z,29.15
2023-08-18T02:28:28.022Z,27.65
2023-08-18T02:30:59.362Z,28.40
2023-08-18T02:33:27.161Z,28.08
2023-08-18T02:35:53.573Z,26.27
2023-08-18T02:38:20.149Z,26.98
2023-08-18T02:40:46.576Z,28.35
2023-08-18T02:43:13.088Z,27.67
2023-08-18T02:45:39.536Z,27.58
2023-08-18T02:48:06.420Z,27.10
2023-08-18T02:50:34.247Z,27.90
2023-08-18T02:53:00.701Z,29.80
2023-08-18T02:55:27.479Z,27.48
2023-08-18T02:57:53.942Z,28.30
2023-08-18T03:00:20.462Z,27.95
2023-08-18T03:02:46.907Z,28.70
2023-08-18T03:05:13.540Z,27.95
2023-08-18T03:07:41.325Z,29.98
2023-08-18T03:10:08.485Z,28.65
2023-08-18T03:12:34.904Z,28.83
2023-08-18T03:15:01.423Z,30.23
2023-08-18T03:17:28.086Z,28.98
2023-08-18T03:19:54.811Z,30.35
2023-08-18T03:22:21.191Z,28.55
2023-08-18T03:24:49.593Z,29.98
2023-08-18T03:27:16.149Z,27.25
2023-08-18T03:29:42.539Z,30.50
2023-08-18T03:32:09.269Z,29.92
2023-08-18T03:34:35.670Z,28.00
2023-08-18T03:37:02.150Z,27.25
2023-08-18T03:39:28.610Z,28.17
2023-08-18T03:41:56.397Z,26.52
2023-08-18T03:44:22.899Z,28.23
2023-08-18T03:46:49.322Z,28.08
2023-08-18T03:49:15.749Z,27.08
2023-08-18T03:51:42.193Z,26.67
2023-08-18T03:54:08.623Z,27.48
2023-08-18T03:56:35.033Z,27.33
2023-08-18T03:59:02.907Z,28.05
2023-08-18T04:01:29.370Z,25.88
2023-08-18T04:03:57.415Z,27.15
2023-08-18T04:06:23.855Z,26.45
2023-08-18T04:09:02.156Z,25.25
2023-08-18T04:11:28.624Z,24.67
2023-08-18T04:13:55.024Z,25.83
2023-08-18T04:16:22.880Z,25.60
2023-08-18T04:18:49.303Z,24.92
2023-08-18T04:21:15.769Z,25.50
2023-08-18T04:23:42.242Z,23.92
2023-08-18T04:26:08.696Z,25.02
2023-08-18T04:28:35.114Z,24.17
2023-08-18T04:31:01.615Z,23.33
2023-08-18T04:33:29.462Z,23.08
2023-08-18T04:35:55.922Z,22.98
2023-08-18T04:38:22.363Z,22.65
2023-08-18T04:40:56.587Z,21.88
2023-08-18T04:43:23.001Z,23.40
2023-08-18T04:45:49.441Z,22.35
2023-08-18T04:48:15.947Z,23.35
2023-08-18T04:50:43.904Z,23.40
2023-08-18T04:53:10.340Z,23.30
2023-08-18T04:55:36.773Z,23.42
2023-08-18T04:58:03.468Z,23.85
2023-08-18T05:00:30.201Z,23.45
2023-08-18T05:02:56.681Z,23.23
2023-08-18T05:05:23.198Z,22.67
2023-08-18T05:07:51.021Z,23.00
2023-08-18T05:10:17.518Z,24.13
2023-08-18T05:12:43.946Z,22.38
2023-08-18T05:15:10.570Z,22.80
2023-08-18T05:17:37.148Z,24.30
2023-08-18T05:20:03.838Z,22.58
2023-08-18T05:22:30.599Z,23.42
2023-08-18T05:24:58.540Z,24.02
2023-08-18T05:27:25.056Z,24.38
2023-08-18T05:29:51.531Z,23.98
2023-08-18T05:32:17.986Z,24.88
2023-08-18T05:34:44.435Z,23.67
2023-08-18T05:37:10.904Z,24.58
2023-08-18T05:39:38.728Z,24.85
2023-08-18T05:42:06.843Z,24.67
2023-08-18T05:44:33.313Z,24.15
2023-08-18T05:46:59.709Z,25.05
2023-08-18T05:49:26.182Z,23.58
2023-08-18T05:51:52.648Z,24.67
2023-08-18T05:54:19.132Z,24.38
2023-08-18T05:56:45.581Z,25.95
2023-08-18T05:59:13.414Z,25.15
2023-08-18T06:01:39.871Z,25.17
2023-08-18T06:04:06.611Z,25.50
2023-08-18T06:06:33.164Z,25.55
2023-08-18T06:08:59.606Z,25.35
2023-08-18T06:11:26.010Z,25.27
2023-08-18T06:13:52.483Z,26.02
2023-08-18T06:16:20.327Z,24.13
2023-08-18T06:18:46.905Z,25.55
2023-08-18T06:21:13.419Z,25.02
2023-08-18T06:23:39.861Z,23.65
2023-08-18T06:26:06.326Z,22.73
2023-08-18T06:28:32.787Z,23.70
2023-08-18T06:31:05.803Z,23.70
2023-08-18T06:33:33.913Z,24.23
2023-08-18T06:36:00.423Z,23.75
2023-08-18T06:38:26.887Z,24.23
2023-08-18T06:40:53.329Z,23.08
2023-08-18T06:43:21.550Z,23.17
2023-08-18T06:45:47.988Z,22.50
2023-08-18T06:48:14.400Z,22.42
2023-08-18T06:50:42.220Z,23.85
2023-08-18T06:53:08.722Z,22.40
2023-08-18T06:55:36.631Z,22.20
2023-08-18T06:58:14.146Z,21.95
2023-08-18T07:00:40.632Z,22.27
2023-08-18T07:03:07.088Z,21.40
2023-08-18T07:05:33.601Z,20.95
2023-08-18T07:08:01.408Z,22.08
2023-08-18T07:10:28.293Z,20.98
2023-08-18T07:12:55.231Z,19.80
2023-08-18T07:15:30.872Z,18.98
2023-08-18T07:17:58.550Z,19.58
2023-08-18T07:20:28.850Z,19.42
2023-08-18T07:22:58.275Z,16.60
2023-08-18T07:25:31.834Z,15.70
2023-08-18T07:28:00.559Z,16.42
2023-08-18T07:30:28.049Z,16.13
2023-08-18T07:32:54.620Z,18.73
2023-08-18T07:35:21.198Z,17.90
2023-08-18T07:40:23.444Z,17.92
2023-08-18T07:42:56.041Z,17.20
2023-08-18T07:45:22.776Z,17.23
2023-08-18T07:47:52.182Z,17.17
2023-08-18T07:50:21.097Z,17.23
2023-08-18T07:52:47.629Z,16.73
2023-08-18T07:55:15.988Z,18.38
2023-08-18T07:57:43.370Z,19.88
2023-08-18T08:00:12.141Z,19.75
2023-08-18T08:02:39.545Z,19.20
2023-08-18T08:05:11.796Z,18.88
2023-08-18T08:07:43.701Z,19.15
2023-08-18T08:10:19.649Z,17.83
2023-08-18T08:12:49.642Z,17.20
2023-08-18T08:15:21.362Z,17.20
2023-08-18T08:18:12.700Z,17.65
2023-08-18T08:20:43.216Z,22.00
2023-08-18T08:23:13.003Z,7.30
2023-08-18T08:25:42.711Z,18.50
2023-08-18T08:28:18.618Z,24.70
2023-08-18T09:15:13.340Z,19.90
2023-08-18T09:24:04.949Z,23.08
2023-08-18T09:26:51.130Z,18.58
2023-08-18T09:29:22.043Z,19.33
2023-08-18T09:32:12.506Z,18.10
2023-08-18T09:34:45.085Z,17.02
2023-08-18T09:37:24.876Z,18.38
2023-08-18T09:39:57.740Z,17.10
2023-08-18T09:42:29.248Z,17.42
2023-08-18T09:44:59.100Z,17.83
2023-08-18T09:47:29.066Z,15.40
2023-08-18T09:49:57.723Z,16.88
2023-08-18T09:52:27.277Z,16.83
2023-08-18T09:55:01.295Z,17.08
2023-08-18T09:57:38.737Z,17.13
2023-08-18T10:00:12.464Z,18.52
2023-08-18T10:02:43.812Z,17.92
2023-08-18T10:05:16.209Z,16.48
2023-08-18T10:07:55.285Z,15.10
2023-08-18T10:13:05.146Z,15.38
2023-08-18T10:15:36.497Z,14.95
2023-08-18T10:18:05.768Z,14.73
2023-08-18T10:20:37.786Z,14.57
2023-08-18T10:23:07.454Z,15.05
2023-08-18T10:25:41.968Z,14.18
2023-08-18T10:28:10.393Z,13.68
2023-08-18T10:30:38.852Z,13.25
2023-08-18T10:33:06.569Z,12.43
2023-08-18T10:35:36.957Z,15.27
2023-08-18T10:38:06.427Z,15.15
2023-08-18T10:40:38.086Z,14.57
2023-08-18T10:43:07.453Z,15.55
2023-08-18T10:45:34.540Z,14.68
2023-08-18T10:48:11.634Z,15.02
2023-08-18T10:51:08.896Z,14.52
2023-08-18T10:53:41.534Z,14.77
2023-08-18T10:56:14.332Z,13.93
2023-08-18T10:58:43.743Z,14.55
2023-08-18T11:01:10.458Z,14.65
2023-08-18T11:03:37.267Z,14.85
2023-08-18T11:06:05.469Z,14.88
2023-08-18T11:08:35.057Z,15.47
2023-08-18T11:11:03.131Z,14.85
2023-08-18T11:13:32.910Z,15.03
2023-08-18T11:16:15.088Z,15.30
2023-08-18T11:18:42.366Z,13.98
2023-08-18T11:21:12.074Z,12.93
2023-08-18T11:23:47.768Z,14.75
2023-08-18T11:29:26.306Z,13.50
2023-08-18T11:29:27.426Z,14.30
2023-08-18T11:31:54.114Z,13.77
2023-08-18T11:34:28.134Z,14.13
2023-08-18T11:37:03.654Z,13.77
2023-08-18T11:39:30.680Z,14.10
2023-08-18T11:41:59.569Z,13.88
2023-08-18T11:44:33.653Z,14.10
2023-08-18T11:47:00.953Z,12.35
2023-08-18T11:49:27.527Z,11.93
2023-08-18T11:51:57.435Z,13.18
2023-08-18T11:54:32.844Z,12.68
2023-08-18T11:57:22.458Z,12.50
2023-08-18T12:00:05.350Z,12.70
2023-08-18T12:02:35.255Z,12.32
2023-08-18T12:05:20.228Z,12.70
2023-08-18T12:07:47.020Z,12.65
2023-08-18T12:10:20.802Z,13.65
2023-08-18T12:12:55.986Z,13.13
2023-08-18T12:15:44.337Z,13.65
2023-08-18T12:18:14.020Z,12.95
2023-08-18T12:20:40.663Z,12.90
2023-08-18T12:23:20.463Z,13.23
2023-08-18T12:28:40.254Z,13.75
2023-08-18T12:31:08.731Z,13.65
2023-08-18T12:33:40.638Z,12.65
2023-08-18T12:36:12.915Z,14.07
2023-08-18T12:38:45.002Z,14.48
2023-08-18T12:41:14.056Z,14.13
2023-08-18T12:43:40.948Z,13.95
2023-08-18T12:46:09.091Z,13.70
2023-08-18T12:49:02.033Z,14.02
2023-08-18T12:51:51.089Z,14.05
2023-08-18T12:54:23.522Z,13.52
2023-08-18T12:56:58.500Z,13.80
2023-08-18T12:59:28.836Z,13.18
2023-08-18T13:02:00.603Z,13.38
2023-08-18T13:04:28.080Z,13.68
2023-08-18T13:06:56.080Z,13.27
2023-08-18T13:09:23.160Z,14.68
2023-08-18T13:11:49.894Z,13.98
2023-08-18T13:14:16.316Z,14.15
2023-08-18T13:16:50.448Z,14.15
2023-08-18T13:19:18.498Z,14.63
2023-08-18T13:21:47.799Z,13.63
2023-08-18T13:24:14.865Z,15.02
2023-08-18T13:26:41.419Z,14.63
2023-08-18T13:29:09.154Z,13.35
2023-08-18T13:31:35.656Z,13.20
2023-08-18T13:34:02.326Z,13.35
2023-08-18T13:36:30.388Z,14.60
2023-08-18T13:38:56.933Z,12.87
2023-08-18T13:41:23.718Z,13.13
2023-08-18T13:43:57.367Z,13.30
2023-08-18T13:46:24.064Z,13.40
2023-08-18T13:48:50.966Z,12.70
2023-08-18T13:51:18.937Z,12.57
2023-08-18T13:54:17.690Z,12.95
2023-08-18T13:56:47.902Z,12.63
2023-08-18T13:59:14.543Z,12.80
2023-08-18T14:01:41.074Z,13.25
2023-08-18T14:04:07.862Z,13.55
2023-08-18T14:06:36.387Z,13.02
2023-08-18T14:09:04.364Z,12.80
2023-08-18T14:11:31.098Z,13.73
2023-08-18T14:13:59.239Z,12.80
2023-08-18T14:16:25.922Z,12.77
2023-08-18T14:19:01.659Z,12.82
2023-08-18T14:21:28.689Z,11.88
2023-08-18T14:23:59.916Z,12.23
2023-08-18T14:26:26.706Z,12.93
2023-08-18T14:29:10.461Z,13.20
2023-08-18T14:31:42.222Z,13.73
2023-08-18T14:34:09.049Z,12.68
2023-08-18T14:36:37.331Z,13.02
2023-08-18T14:39:06.685Z,11.80
2023-08-18T14:41:49.251Z,12.77
2023-08-18T16:35:04.745Z,12.55
2023-08-18T16:37:36.767Z,12.23
2023-08-18T17:39:59.974Z,13.90
2023-08-18T17:42:42.952Z,15.18
2023-08-18T17:45:50.213Z,15.32
2023-08-18T19:52:55.500Z,21.55
2023-08-18T19:55:22.026Z,21.92
2023-08-18T19:57:48.593Z,22.85
2023-08-18T20:00:15.177Z,21.85
2023-08-18T20:02:42.054Z,20.58
2023-08-18T20:05:09.194Z,20.08
2023-08-18T20:07:36.117Z,19.27
2023-08-18T20:10:04.636Z,18.75
2023-08-18T20:12:31.763Z,19.40
2023-08-18T20:14:58.907Z,18.58
2023-08-18T20:17:25.521Z,18.50
2023-08-18T20:19:52.068Z,18.45
2023-08-18T20:22:19.248Z,20.48
2023-08-18T20:24:45.912Z,20.13
2023-08-18T20:27:13.781Z,19.33
2023-08-18T20:29:40.504Z,24.67
2023-08-18T20:32:07.050Z,40.88
2023-08-18T20:34:33.561Z,50.00
2023-08-18T20:37:02.576Z,51.70
2023-08-18T20:41:55.326Z,51.28
2023-08-18T20:44:23.272Z,44.08
2023-08-18T20:46:49.753Z,39.00
2023-08-18T20:49:16.404Z,37.25
2023-08-18T20:51:43.142Z,50.78
2023-08-18T20:54:10.105Z,55.92
2023-08-18T20:56:36.796Z,56.20
2023-08-18T20:59:03.590Z,46.25
2023-08-18T21:01:31.649Z,51.70
2023-08-18T21:03:58.390Z,46.13
2023-08-18T21:06:25.190Z,39.78
2023-08-18T21:08:51.886Z,32.53
2023-08-18T21:11:18.392Z,23.77
2023-08-18T21:13:44.938Z,23.10
2023-08-18T21:16:13.430Z,22.25
2023-08-18T21:18:41.408Z,19.63
2023-08-18T21:21:07.905Z,19.83
2023-08-18T21:23:34.403Z,20.50
2023-08-18T21:26:00.937Z,19.45
2023-08-18T21:28:27.601Z,19.08
2023-08-18T21:30:57.608Z,18.02
2023-08-18T21:33:24.059Z,18.83
2023-08-18T21:35:51.842Z,20.33
2023-08-18T21:38:18.580Z,20.15
2023-08-18T21:40:49.033Z,19.27
2023-08-18T21:43:15.433Z,21.52
2023-08-18T21:45:41.913Z,21.33
2023-08-18T21:48:08.329Z,20.95
2023-08-18T21:50:36.660Z,20.42
2023-08-18T21:53:04.561Z,21.17
2023-08-18T21:55:31.407Z,19.85
2023-08-18T21:57:57.920Z,20.08
2023-08-18T22:00:24.480Z,21.35
2023-08-18T22:02:52.190Z,21.25
2023-08-18T22:05:18.675Z,20.73
2023-08-18T22:07:45.377Z,20.08
2023-08-18T22:10:13.424Z,20.30
2023-08-18T22:12:39.910Z,21.13
2023-08-18T22:15:06.953Z,20.15
2023-08-18T22:17:33.456Z,19.85
2023-08-18T22:20:00.037Z,21.42
2023-08-18T22:22:34.000Z,21.90
2023-08-18T22:25:00.659Z,21.13
2023-08-18T22:27:29.427Z,22.17
2023-08-18T22:29:55.884Z,21.17
2023-08-18T22:32:22.351Z,20.77
2023-08-18T22:34:48.879Z,21.55
2023-08-18T22:37:15.643Z,20.92
2023-08-18T22:39:42.108Z,21.58
2023-08-18T22:42:08.574Z,22.77
2023-08-18T22:44:39.161Z,22.10
2023-08-18T22:47:09.166Z,21.73
2023-08-18T22:49:35.686Z,22.08
2023-08-18T22:52:02.160Z,21.83
2023-08-18T22:54:28.732Z,23.02
2023-08-18T22:56:55.270Z,22.38
2023-08-18T22:59:21.721Z,21.42
2023-08-18T23:01:49.603Z,20.85
2023-08-18T23:04:16.241Z,23.35
2023-08-18T23:06:42.715Z,22.42
2023-08-18T23:09:09.364Z,24.50
2023-08-18T23:11:35.900Z,23.50
2023-08-18T23:14:02.368Z,24.25
2023-08-18T23:16:28.948Z,23.08
2023-08-18T23:18:56.769Z,23.45
2023-08-18T23:21:23.599Z,22.63
2023-08-18T23:23:50.266Z,23.70
2023-08-18T23:26:16.742Z,26.02
2023-08-18T23:28:43.244Z,22.45
2023-08-18T23:31:09.739Z,25.10
2023-08-18T23:33:36.363Z,24.73
2023-08-18T23:36:04.382Z,24.00
2023-08-18T23:38:33.636Z,25.30
2023-08-18T23:41:00.202Z,27.25
2023-08-18T23:43:26.886Z,25.42
2023-08-18T23:46:02.429Z,26.98
2023-08-18T23:48:30.172Z,25.27
2023-08-18T23:50:56.598Z,24.48
2023-08-18T23:53:24.379Z,25.65
2023-08-18T23:55:51.379Z,24.92
2023-08-18T23:58:18.151Z,23.98
